Sutter, California
Current Conditions -  °F | °C
As of 10:53 AM on Monday 20 Oct 2014 (Local Time) from KMYV Reporting Station
Light Rain Light Rain  
Wind Chill: 67°   Ceiling: 5000
Heat Index: 67°   Visibility: 10mi
Dew Point: 56°   Wind: 15mph
Humidity: 68%   Direction: 170°S
Pressure: 29.94"   Gusts: NA
Location:  39.16°N, 121.76°W
Report Text: KMYV 201753Z AUTO 17013KT 10SM -RA FEW019 BKN050 OVC065 19/13 A2994 RMK AO2 SLP141 P0000 60000 T01940133 10200 20144 51012
Loading
Personal Weather Stations






























Interactive Weather Map
Tropical Storm Tracking
New forecast layout! Learn more

10-Day Weather Forecast

Advertisements
Track Severe Weather on mobile